Latest Weather Observations for Mount William

IDV60801

Issued at 6:02 pm EST Thursday 18 July 2024 (issued every 10 minutes, with the page automatically refreshed every 10 minutes)

About weather observations | Map of weather stations | Latest weather observations for VIC | Other Formats
Station Details ID: 079103 Name: MOUNT WILLIAM Lat: -37.30 Lon: 142.60 Height: 1150.0 m
Data from the previous 72 hours. | See also: Recent months at Mount William
Date/Time
EST
Temp
°C
App
Temp
°C
Dew
Point
°C
Rel
Hum
%
Delta-T
°C
Wind Press
QNH
hPa
Press
MSL
hPa
Rain since
9am
mm
Dir  Spd
km/h
Gust
km/h
Spd
kts
Gust
kts
18/06:00pm 1.4 -3.6 1.4 100 0.0 WNW 17 24 9 13 - - 1.4
18/05:30pm 1.4 -2.8 1.4 100 0.0 W 13 19 7 10 - - 1.4
18/05:00pm 1.6 -1.5 1.6 100 0.0 WNW 7 11 4 6 - - 1.4
18/04:30pm 1.7 -1.3 1.7 100 0.0 WSW 7 20 4 11 - - 1.4
18/04:00pm 1.8 -1.6 1.8 100 0.0 WSW 9 19 5 10 - - 1.4
18/03:30pm 2.0 -1.8 2.0 100 0.0 W 11 19 6 10 - - 1.4
18/03:00pm 2.3 -0.5 2.3 100 0.0 WSW 6 15 3 8 - - 1.4
18/02:30pm 2.1 -0.9 2.1 100 0.0 W 7 19 4 10 - - 1.4
18/02:00pm 2.4 -1.3 2.4 100 0.0 WSW 11 19 6 10 - - 1.2
18/01:30pm 1.9 -2.3 1.9 100 0.0 W 13 22 7 12 - - 0.8
18/01:00pm 1.9 -1.5 1.9 100 0.0 W 9 20 5 11 - - 0.8
18/12:30pm 2.4 -0.9 2.4 100 0.0 WSW 9 20 5 11 - - 0.6
18/12:00pm 2.2 -1.9 2.2 100 0.0 W 13 22 7 12 - - 0.6
18/11:30am 1.7 -2.9 1.7 100 0.0 WSW 15 26 8 14 - - 0.6
18/11:00am 1.8 -2.0 1.8 100 0.0 WSW 11 20 6 11 - - 0.4
18/10:30am 1.3 -3.0 1.3 100 0.0 WSW 13 20 7 11 - - 0.4
18/10:00am 1.2 -3.1 1.2 100 0.0 WSW 13 22 7 12 - - 0.2
18/09:30am 0.9 -3.8 0.9 100 0.0 WSW 15 28 8 15 - - 0.2
18/09:00am 0.7 -4.8 0.7 100 0.0 WSW 19 30 10 16 - - 4.6
18/08:30am 0.5 -5.0 0.5 100 0.0 SW 19 32 10 17 - - 4.2
18/08:00am 0.4 -5.3 0.4 100 0.0 SW 20 39 11 21 - - 4.2
18/07:30am 0.4 -5.3 0.4 100 0.0 SW 20 39 11 21 - - 4.0
18/07:00am 0.3 -6.2 0.3 100 0.0 WSW 24 43 13 23 - - 4.0
18/06:30am 0.1 -7.6 0.1 100 0.0 WSW 30 52 16 28 - - 4.0
18/06:11am 0.2 -7.1 0.2 100 0.0 WSW 28 50 15 27 - - 4.0
18/06:00am 0.3 -6.2 0.3 100 0.0 WSW 24 43 13 23 - - 4.0
18/05:30am 0.1 -8.1 0.1 100 0.0 SW 33 50 18 27 - - 4.0
18/05:00am 0.0 -8.1 0.0 100 0.0 SW 32 48 17 26 - - 4.0
18/04:46am 0.0 -8.3 0.0 100 0.0 SW 33 52 18 28 - - 4.0
18/04:30am -0.1 -9.1 -0.1 100 0.0 SW 37 50 20 27 - - 4.0
18/04:20am -0.1 -8.7 -0.1 100 0.0 SW 35 54 19 29 - - 4.0
18/04:00am 0.0 -9.0 0.0 100 0.0 SW 37 52 20 28 - - 4.0
18/03:30am 0.0 -9.0 0.0 100 0.0 SW 37 52 20 28 - - 4.0
18/03:00am -0.2 -9.2 -0.2 100 0.0 SW 37 56 20 30 - - 4.0
18/02:55am -0.3 -9.0 -0.3 100 0.0 SW 35 56 19 30 - - 4.0
18/02:30am -0.1 -8.4 -0.1 100 0.0 SW 33 50 18 27 - - 3.8
18/02:00am 0.3 -7.9 0.3 100 0.0 SW 33 54 18 29 - - 3.8
18/01:30am 0.4 -8.2 0.4 100 0.0 SW 35 54 19 29 - - 3.8
18/01:00am 0.5 -8.1 0.5 100 0.0 SW 35 56 19 30 - - 3.8
18/12:54am 0.5 -7.7 0.5 100 0.0 SW 33 54 18 29 - - 3.8
18/12:30am 0.3 -7.7 0.3 100 0.0 SW 32 46 17 25 - - 3.8
18/12:00am 0.4 -8.2 0.4 100 0.0 SW 35 50 19 27 - - 3.8
 
Date/Time
EST
Temp
°C
App
Temp
°C
Dew
Point
°C
Rel
Hum
%
Delta-T
°C
Wind Press
QNH
hPa
Press
MSL
hPa
Rain since
9am
mm
Dir  Spd
km/h
Gust
km/h
Spd
kts
Gust
kts
17/11:35pm 0.5 -8.1 0.5 100 0.0 SW 35 57 19 31 - - 3.8
17/11:30pm 0.6 -7.6 0.6 100 0.0 SW 33 48 18 26 - - 3.8
17/11:03pm 0.5 -6.7 0.5 100 0.0 SW 28 46 15 25 - - 3.8
17/11:00pm 0.6 -7.0 0.6 100 0.0 SW 30 46 16 25 - - 3.8
17/10:44pm 0.8 -6.8 0.8 100 0.0 SW 30 50 16 27 - - 3.8
17/10:30pm 0.6 -7.0 0.6 100 0.0 SW 30 46 16 25 - - 3.8
17/10:28pm 0.6 -6.6 0.6 100 0.0 SW 28 46 15 25 - - 3.8
17/10:00pm 0.6 -5.9 0.6 100 0.0 SW 24 41 13 22 - - 3.8
17/09:30pm 0.8 -7.1 0.8 100 0.0 SW 32 46 17 25 - - 3.8
17/09:00pm 1.2 -7.3 1.2 100 0.0 SW 35 56 19 30 - - 3.8
17/08:46pm 1.3 -5.8 1.3 100 0.0 SW 28 46 15 25 - - 3.8
17/08:30pm 1.4 -6.4 1.4 100 0.0 SW 32 46 17 25 - - 3.8
17/08:01pm 1.5 -6.3 1.5 100 0.0 SW 32 50 17 27 - - 3.8
17/08:00pm 1.6 -6.2 1.6 100 0.0 SW 32 50 17 27 - - 3.8
17/07:30pm 1.9 -5.5 1.9 100 0.0 SW 30 54 16 29 - - 3.8
17/07:00pm 1.6 -7.2 1.6 100 0.0 SW 37 61 20 33 - - 3.8
17/06:32pm 2.2 -5.1 2.2 100 0.0 SW 30 48 16 26 - - 3.8
17/06:30pm 2.2 -5.5 2.2 100 0.0 SW 32 48 17 26 - - 3.8
17/06:11pm 2.1 -5.8 2.1 100 0.0 SW 33 56 18 30 - - 3.8
17/06:00pm 2.4 -5.3 2.4 100 0.0 SW 32 44 17 24 - - 3.8
17/05:46pm 2.8 -4.8 2.8 100 0.0 SW 32 50 17 27 - - 3.8
17/05:30pm 2.8 -5.4 2.8 100 0.0 SW 35 50 19 27 - - 3.8
17/05:00pm 3.1 -5.0 3.1 100 0.0 SW 35 54 19 29 - - 3.8
17/04:33pm 3.6 -3.9 3.6 100 0.0 SW 32 50 17 27 - - 3.6
17/04:30pm 3.6 -3.9 3.6 100 0.0 SW 32 48 17 26 - - 3.6
17/04:00pm 3.7 -3.4 3.7 100 0.0 SW 30 52 16 28 - - 3.6
17/03:59pm 3.8 -3.3 3.8 100 0.0 SW 30 52 16 28 - - 3.6
17/03:30pm 4.1 -2.9 4.1 100 0.0 SW 30 46 16 25 - - 3.4
17/03:00pm 4.4 -0.4 4.4 100 0.0 SW 19 32 10 17 - - 3.4
17/02:30pm 4.7 -1.8 4.7 100 0.0 SW 28 44 15 24 - - 3.4
17/02:00pm 5.4 0.8 5.4 100 0.0 SW 19 35 10 19 - - 3.0
17/01:30pm 5.3 1.0 5.3 100 0.0 SW 17 33 9 18 - - 2.8
17/01:00pm 5.5 0.9 5.5 100 0.0 SW 19 33 10 18 - - 2.6
17/12:30pm 5.0 0.3 5.0 100 0.0 SW 19 30 10 16 - - 2.6
17/12:00pm 5.3 1.0 5.3 100 0.0 SSW 17 28 9 15 - - 2.4
17/11:30am 5.2 -0.1 5.2 100 0.0 SSW 22 30 12 16 - - 2.2
17/11:00am 5.0 0.3 5.0 100 0.0 SSW 19 28 10 15 - - 1.8
17/10:30am 5.0 0.3 5.0 100 0.0 S 19 30 10 16 - - 1.4
17/10:00am 4.9 -0.4 4.9 100 0.0 S 22 30 12 16 - - 0.6
17/09:30am 4.7 -1.4 4.7 100 0.0 S 26 41 14 22 - - 0.2
17/09:00am 4.5 -1.3 4.5 100 0.0 S 24 37 13 20 - - 19.2
17/08:30am 4.3 -1.9 4.3 100 0.0 S 26 39 14 21 - - 19.0
17/08:00am 4.5 -2.4 4.5 100 0.0 S 30 41 16 22 - - 19.0
17/07:30am 4.3 -1.5 4.3 100 0.0 S 24 39 13 21 - - 18.8
17/07:00am 4.2 -1.6 4.2 100 0.0 SSW 24 39 13 21 - - 18.8
17/06:30am 4.1 -2.1 4.1 100 0.0 SSW 26 39 14 21 - - 18.6
17/06:00am 3.9 -2.0 3.9 100 0.0 SSW 24 35 13 19 - - 18.6
17/05:30am 4.6 0.2 4.6 100 0.0 SSW 17 30 9 16 - - 18.2
17/05:00am 4.7 1.4 4.7 100 0.0 SSW 11 20 6 11 - - 17.0
17/04:30am 4.6 0.2 4.6 100 0.0 SSW 17 28 9 15 - - 16.0
17/04:00am 4.3 -0.2 4.3 100 0.0 SW 17 22 9 12 - - 15.8
17/03:30am 4.1 -1.0 4.1 100 0.0 SW 20 30 11 16 - - 15.8
17/03:00am 4.0 -1.1 4.0 100 0.0 SW 20 28 11 15 - - 15.8
17/02:30am 3.7 -1.5 3.7 100 0.0 SW 20 28 11 15 - - 15.8
17/02:00am 3.7 -2.2 3.7 100 0.0 SSW 24 30 13 16 - - 15.8
17/01:30am 3.6 -2.4 3.6 100 0.0 SSW 24 32 13 17 - - 15.8
17/01:00am 3.6 -2.0 3.6 100 0.0 SSW 22 30 12 16 - - 15.8
17/12:30am 3.7 -2.6 3.7 100 0.0 S 26 33 14 18 - - 15.8
17/12:00am 3.5 -2.8 3.5 100 0.0 SSE 26 33 14 18 - - 15.8
 
Date/Time
EST
Temp
°C
App
Temp
°C
Dew
Point
°C
Rel
Hum
%
Delta-T
°C
Wind Press
QNH
hPa
Press
MSL
hPa
Rain since
9am
mm
Dir  Spd
km/h
Gust
km/h
Spd
kts
Gust
kts
16/11:30pm 3.8 -3.3 3.8 100 0.0 S 30 39 16 21 - - 15.8
16/11:00pm 4.2 -3.3 4.2 100 0.0 S 33 43 18 23 - - 15.8
16/10:30pm 4.8 -0.5 4.8 100 0.0 SSW 22 35 12 19 - - 15.6
16/10:00pm 4.4 -2.2 4.4 100 0.0 SSW 28 44 15 24 - - 15.4
16/09:30pm 4.8 -0.9 4.8 100 0.0 SW 24 35 13 19 - - 15.4
16/09:00pm 5.1 -1.7 5.1 100 0.0 SW 30 44 16 24 - - 15.2
16/08:30pm 5.0 -1.8 5.0 100 0.0 SW 30 50 16 27 - - 14.8
16/08:00pm 5.0 -2.4 5.0 100 0.0 SW 33 52 18 28 - - 14.0
16/07:30pm 4.7 -3.1 4.7 100 0.0 SW 35 57 19 31 - - 13.8
16/07:00pm 5.0 -4.3 5.0 100 0.0 SW 43 65 23 35 - - 13.4
16/06:30pm 4.9 -2.9 4.9 100 0.0 SW 35 61 19 33 - - 12.4
16/06:07pm 4.9 -2.9 4.9 100 0.0 SW 35 54 19 29 - - 11.6
16/06:00pm 4.8 -3.4 4.8 100 0.0 SW 37 54 20 29 - - 11.4
16/05:30pm 4.8 -3.4 4.8 100 0.0 SW 37 57 20 31 - - 11.2
16/05:10pm 4.8 -3.4 4.8 100 0.0 SSW 37 57 20 31 - - 11.2
16/05:00pm 4.8 -3.8 4.8 100 0.0 SW 39 57 21 31 - - 11.0
16/04:30pm 5.0 -2.2 5.0 100 0.0 SW 32 54 17 29 - - 10.2
16/04:01pm 4.8 -2.6 4.8 100 0.0 SW 33 57 18 31 - - 9.2
16/04:00pm 4.9 -2.5 4.9 100 0.0 SW 33 50 18 27 - - 9.2
16/03:30pm 4.8 -3.4 4.8 100 0.0 SW 37 59 20 32 - - 8.6
16/03:00pm 4.8 -3.4 4.8 100 0.0 SW 37 67 20 36 - - 7.0
16/02:30pm 4.9 -2.9 4.9 100 0.0 SW 35 56 19 30 - - 6.4
16/02:00pm 4.9 -2.5 4.9 100 0.0 SW 33 63 18 34 - - 5.8
16/01:30pm 4.8 -3.4 4.8 100 0.0 SW 37 65 20 35 - - 5.0
16/01:00pm 5.3 -2.0 5.3 100 0.0 SW 33 57 18 31 - - 4.2
16/12:41pm 5.0 -2.8 5.0 100 0.0 SW 35 63 19 34 - - 4.0
16/12:30pm 4.9 -2.9 4.9 100 0.0 SW 35 50 19 27 - - 3.6
16/12:00pm 4.8 -3.8 4.8 100 0.0 SW 39 69 21 37 - - 3.4
16/11:30am 5.0 -3.2 5.0 100 0.0 SW 37 56 20 30 - - 3.0
16/11:04am 4.8 -3.0 4.8 100 0.0 SW 35 56 19 30 - - 2.4
16/11:00am 4.8 -3.0 4.8 100 0.0 SW 35 52 19 28 - - 2.2
16/10:30am 4.5 -3.7 4.5 100 0.0 SW 37 61 20 33 - - 1.4
16/10:00am 4.4 -4.6 4.4 100 0.0 SW 41 72 22 39 - - 1.0
16/09:30am 4.2 -4.5 4.2 100 0.0 SW 39 72 21 39 - - 0.4
16/09:00am 4.1 -5.6 4.1 100 0.0 SW 44 65 24 35 - - 29.4
16/08:30am 4.0 -5.5 4.0 100 0.0 SW 43 78 23 42 - - 28.8
16/08:00am 3.9 -6.6 3.9 100 0.0 SSW 48 74 26 40 - - 28.4
16/07:30am 3.8 -5.9 3.8 100 0.0 SW 44 67 24 36 - - 27.8
16/07:00am 3.7 -6.0 3.7 100 0.0 SSW 44 65 24 35 - - 26.6
16/06:30am 3.6 -6.5 3.6 100 0.0 SW 46 80 25 43 - - 25.6
16/06:00am 3.4 -7.5 3.4 100 0.0 SW 50 80 27 43 - - 24.8
16/05:30am 3.3 -7.3 3.3 100 0.0 SW 48 82 26 44 - - 23.4
16/05:00am 3.1 -8.3 3.1 100 0.0 SW 52 76 28 41 - - 22.0
16/04:30am 3.1 -9.2 3.1 100 0.0 SW 57 89 31 48 - - 20.8
16/04:00am 3.0 -9.1 3.0 100 0.0 SW 56 82 30 44 - - 18.8
16/03:30am 2.9 -9.4 2.9 100 0.0 SW 57 91 31 49 - - 17.2
16/03:00am 2.6 -10.6 2.6 100 0.0 SW 61 87 33 47 - - 16.0
16/02:30am 2.6 -9.8 2.6 100 0.0 SW 57 89 31 48 - - 14.4
16/02:00am 2.6 -11.3 2.6 100 0.0 SW 65 91 35 49 - - 13.0
16/01:30am 2.4 -9.8 2.4 100 0.0 SW 56 87 30 47 - - 11.6
16/01:00am 2.4 -10.0 2.4 100 0.0 SW 57 83 31 45 - - 10.4
16/12:30am 2.2 -9.3 2.2 100 0.0 SW 52 85 28 46 - - 9.2
16/12:00am 2.1 -9.1 2.1 100 0.0 SW 50 72 27 39 - - 8.2
 
Date/Time
EST
Temp
°C
App
Temp
°C
Dew
Point
°C
Rel
Hum
%
Delta-T
°C
Wind Press
QNH
hPa
Press
MSL
hPa
Rain since
9am
mm
Dir  Spd
km/h
Gust
km/h
Spd
kts
Gust
kts
15/11:30pm 2.0 -9.6 2.0 100 0.0 SW 52 72 28 39 - - 7.0
15/11:00pm 1.9 -8.1 1.9 100 0.0 SW 44 69 24 37 - - 6.0
15/10:30pm 1.8 -9.8 1.8 100 0.0 SW 52 78 28 42 - - 5.4
15/10:00pm 1.9 -9.3 1.9 100 0.0 SW 50 87 27 47 - - 4.6
15/09:58pm 1.9 -8.9 1.9 100 0.0 SW 48 87 26 47 - - 4.6
15/09:56pm 1.9 -9.3 1.9 100 0.0 SW 50 83 27 45 - - 4.4
15/09:30pm 1.8 -11.1 1.8 100 0.0 SW 59 87 32 47 - - 4.0
15/09:16pm 1.7 -9.5 1.7 100 0.0 SW 50 83 27 45 - - 4.0
15/09:00pm 1.7 -8.2 1.7 100 0.0 SW 43 63 23 34 - - 3.6
15/08:30pm 1.6 -9.3 1.6 100 0.0 SW 48 78 26 42 - - 3.0
15/08:00pm 1.5 -8.0 1.5 100 0.0 SW 41 65 22 35 - - 2.6
15/07:30pm 1.3 -7.1 1.3 100 0.0 SW 35 63 19 34 - - 2.2
15/07:00pm 1.1 -8.5 1.1 100 0.0 WSW 41 76 22 41 - - 1.6
15/06:30pm 1.2 -7.6 1.2 100 0.0 WSW 37 61 20 33 - - 1.2

Other formats

Comma delimited format used in spreadsheet applications
http://www.bom.gov.au/fwo/IDV60801/IDV60801.94833.axf

JavaScript Object Notation format (JSON) in row-major order
http://www.bom.gov.au/fwo/IDV60801/IDV60801.94833.json

Data quality

Most of these data are generated automatically and are frequently updated. Quality checks on data are not normally performed. It is possible for incorrect values to appear. Refer to information at About Latest Weather Observations and please check the disclaimer before using these data.